Warning: Javascript must be enabled to use all the features on this page!


Page Loading - Please Wait...

Click to hideNews Bulletins

Peak Streamflow for the Nation

USGS 07252000 Mulberry River near Mulberry, AR

Franklin County, Arkansas
Hydrologic Unit Code 11110201
Latitude  35°34'37", Longitude  94°00'55" NAD83
Drainage area 373  square miles
Gage datum 433 feet above NAVD88
Output formats
Table
Graph
Tab-separated file
peakfq (watstore) format
Reselect output format
Water
Year
Date Gage
Height
(feet)
Stream-
flow
(cfs)
1928 1927-12 22.00Bd 59,0007,Bd
1939 1939-04-17 11.20 12,600
1940 1940-04-11 8.60 8,010
1941 1941-01-24 8.32 7,110
1942 1942-04-08 12.89 17,500
1943 1943-05-10 18.23 40,100
1944 1944-04-08 12.82 17,600
1945 1945-04-15 19.70 47,800
1946 1946-05-25 14.93 25,700
1947 1947-05-20 15.40 27,600
1948 1948-01-01 12.04 16,100
1949 1949-01-24 18.61 42,100
1950 1950-01-04 13.90 22,000
1951 1951-02-18 14.55 24,500
1952 1952-04-12 11.63 15,000
1953 1953-03-18 15.17 26,800
1954 1954-04-16 8.33 7,320
1955 1955-03-21 13.28 19,000
1956 1956-05-15 11.68 15,300
1957 1957-04-03 15.70 28,800
1958 1958-05-09 9.88 11,100
1959 1958-11-15 7.06 5,240
1960 1960-05-06 12.78 18,300
1961 1961-05-19 15.61 28,400
1962 1961-11-22 11.34 14,300
1963 1962-10-16 5.03 2,530
1964 1964-04-05 13.98 22,300
1965 1965-02-09 7.78 6,420
1966 1966-02-09 17.85 38,200
1967 1967-05-14 8.48 7,640
1968 1968-03-20 13.78 21,600
1969 1969-01-30 17.93 38,800
1970 1970-04-25 13.12 19,300
1971 1971-05-11 11.02 13,600
1972 1971-12-10 20.51 52,200
1973 1973-04-22 17.68 37,600
1974 1973-11-25 21.34 56,800
1975 1974-11-10 9.28 9,540
1976 1976-04-20 8.23 7,390
1977 1977-03-28 14.77 25,200
1978 1978-03-24 15.02 26,100
1979 1979-07-28 10.00 11,200
1980 1980-04-08 4.48 2,130
1981 1981-06-06 7.00 5,250
1982 1982-01-31 17.56 37,000
1983 1982-12-03 23.66 70,200
1984 1984-05-07 11.89 15,700
1985 1985-02-23 21.90 59,700
1986 1985-11-19 19.79 48,200
1987 1987-03-17 13.06 19,300
1988 1987-12-26 11.74 15,400
1989 1989-02-13 13.63 21,100
1990 1990-05-03 21.48 57,300
1991 1991-04-18 9.14 9,250
1992 1991-10-29 13.85 21,800
1993 1993-01-04 18.06 39,400
1994 1993-11-14 15.35 27,400
1995 1995-05-08 13.05 19,200
1996 1996-09-27 17.33 35,900
1997 1996-11-07 16.62 32,700
1998 1998-01-05 12.90 18,800
1999 1999-06-30 10.51 11,500
2000 2000-06-17 18.31 39,900
2001 2001-02-15 11.84 15,500
2002 2002-04-08 17.86 37,800
2003 2003-05-16 9.18 9,000
2004 2004-04-23 20.02 53,100
2005 2005-01-04 15.24 29,300
2006 2006-05-04 8.92 8,770
2007 2007-01-13 13.66 22,900
2008 2008-03-18 20.57 56,300
2009 2009-01-28 11.57 15,700
2010 2009-10-30 18.38 44,100
2011 2011-04-25 15.61 30,900
2012 2012-03-21 11.39 15,200
2013 2013-08-10 13.13 20,900
2014 2014-03-16 12.89 20,100
2015 2015-05-10 16.38 34,400
2016 2015-12-28 17.87 41,500
2017 2017-04-30 15.34 29,700
2018 2018-02-24 11.91 17,100
2019 2019-08-09 16.42 34,900
2020 2020-01-11 12.26 18,200
2021 2021-04-29 18.60 46,500
?
  Peak Gage-Height Qualification Codes.
?
  Peak Streamflow Qualification Codes.